Billings Logan International Airport
KBIL : now visible

Airfield :











YOU CAN JOIN US ON...

 
LOGIN :

Register | Disclaimer

   EN    FR    IT 

 









Legend :    VFR   Marginal VFR   IFR   Intensive IFR   Very Intensive IFR
Visi :
Ceiling :
>= 8 km
>= 3000ft
5 to 8 km
1000 to 3000 ft
1500m to 5 km
500 to 1000 ft
800 to 1500m
200 to 500 ft
< 800m
< 200 ft
Symbols :   Thunderstorms  Fog  Heavy snow  Heavy precipitations  Wind > 20 kt






- Airport Elevation : 3652 ft
- IATA code : BIL


KBIL - Billings Logan International

CURRENT METAR :
  • 080653Z 21010KT 10SM SCT100 BKN190 03/M03 A2971 RMK AO2 SLP071 T00281028 401280022

EXPIRED METARs :
  • 080553Z 24010KT 10SM SCT090 BKN130 06/M03 A2973 RMK AO2 SLP072 T00561033 10100 20033 56007
  • 080453Z 23008KT 10SM BKN090 07/M03 A2974 RMK AO2 SLP074 T00671028

TAF KBIL
Valid from the 08 at 06:00 until the 09 at 06:00 UTC


080523Z 0806/0906 24007KT P6SM BKN090
FM081400 27008KT P6SM VCSH OVC050
FM081900 36010KT 3SM -SN SCT015 OVC025
FM082200 03009KT 2SM -SN OVC015
FM090300 35006KT P6SM BKN025



MET'MAP, your aeronautical weather chart ! - Copyright ORBIFLY December 2007 - Disclaimer

ORBIFLY MET'MAP TEAM :

Programming & Development : Alexandra Zaïnal
Concept & original design : Baudouin d'Aumeries
Assistance for programming : Marc-Olivier Méhu
Technical & hardware support : Manuel Goepfert

Contact : metmap@orbifly.com




SOURCES & CREDITS :

   NOAA       Earth
Advisory